Carshalton, United Kingdom
Current Conditions -  °F | °C
As of 4:50 PM on Monday 22 Dec 2014 (Local Time) from EGKB Reporting Station
Broken Clouds Broken Clouds  
Wind Chill: 54°   Ceiling: 2200
Heat Index: 54°   Visibility: 6mi
Dew Point: 45°   Wind: 14mph
Humidity: 72%   Direction: 240°WSW
Pressure: 30.06"   Gusts: NA
Location:  51.38°N, 0.18°W
Report Text: EGKB 221650Z 24012KT 200V270 9999 BKN022 12/07 Q1018
Loading
Personal Weather Stations






























Interactive Weather Map New forecast layout! Learn more

10-Day Weather Forecast

Advertisements
Track Severe Weather on mobile